KITH/ITH METAR and TAF weather

Enter ICAO airport designator
Station Type Date Time Source
KITH METAR 2019/08/19 07:56 UTC NOAA

KITH 190756Z AUTO 16007KT 10SM BKN110 20/18 A2994 RMK AO2 SLP133 T02000178


Station Type Date Time Source
KITH Decoded METAR 2019/08/19 07:56 UTC NOAA

Station name not available
Aug 19, 2019 - 03:56 AM EDT / 2019.08.19 0756 UTC
Wind: from the SSE (160 degrees) at 8 MPH (7 KT):0
Visibility: 10 mile(s):0
Sky conditions: mostly cloudy
Temperature: 68.0 F (20.0 C)
Dew Point: 64.0 F (17.8 C)
Relative Humidity: 87%
Pressure (altimeter): 29.94 in. Hg (1013 hPa)
ob: KITH 190756Z AUTO 16007KT 10SM BKN110 20/18 A2994 RMK AO2 SLP133 T02000178
cycle: 8

Station Type Date Time Source
KITH TAF 2019/08/19 06:42 UTC NOAA

TAF KITH 190540Z 1906/2006 17007KT P6SM SCT060
TEMPO 1909/1911 24010G18KT 6SM -SHRA OVC040
FM191300 21005KT P6SM BKN080
FM191600 29009KT P6SM BKN060
FM192200 32007KT P6SM SCT040

Example: see airport list